Time;durP1;ratioP1;P1;durP2;ratioP2;P2;SDS_P1;SDS_P2;PMS_P1;PMS_P2;Temp;Humidity;BMP_temperature;BMP_pressure;BME280_temperature;BME280_humidity;BME280_pressure;Samples;Min_cycle;Max_cycle;Signal;HPM_P1;HPM_P2
2023/01/06 00:01:27;;;;;;;45.10;27.25;;;10.10;99.90;;;;;;5019707;28;21675;-49
2023/01/06 00:03:57;;;;;;;44.42;26.15;;;10.00;99.90;;;;;;5017995;28;20042;-50
2023/01/06 00:06:26;;;;;;;46.53;24.77;;;10.00;99.90;;;;;;5019664;28;20318;-48
2023/01/06 00:08:57;;;;;;;43.00;25.17;;;10.00;99.90;;;;;;5023616;28;20153;-49
2023/01/06 00:11:24;;;;;;;42.28;23.88;;;10.10;99.90;;;;;;5023301;28;20729;-48
2023/01/06 00:13:49;;;;;;;37.08;21.90;;;10.10;99.90;;;;;;5026622;28;20038;-48
2023/01/06 00:16:17;;;;;;;40.65;22.40;;;10.10;99.90;;;;;;5020394;28;20154;-49
2023/01/06 00:18:44;;;;;;;33.17;21.33;;;10.10;99.90;;;;;;5015719;28;20137;-52
2023/01/06 00:21:11;;;;;;;32.20;21.02;;;10.10;99.90;;;;;;5016047;28;20053;-48
2023/01/06 00:23:37;;;;;;;33.67;20.55;;;10.10;99.90;;;;;;5015847;28;20045;-48
2023/01/06 00:26:04;;;;;;;35.03;19.70;;;10.10;99.90;;;;;;5017167;28;20064;-48
2023/01/06 00:28:30;;;;;;;29.37;18.93;;;10.10;99.90;;;;;;5014370;28;20057;-48
2023/01/06 00:30:56;;;;;;;29.15;18.48;;;10.10;99.90;;;;;;5026988;28;20033;-48
2023/01/06 00:33:23;;;;;;;26.08;16.92;;;10.10;99.90;;;;;;5025667;28;20160;-51
2023/01/06 00:35:49;;;;;;;25.45;16.90;;;10.10;99.90;;;;;;5025140;28;20037;-48
2023/01/06 00:38:15;;;;;;;23.80;15.50;;;10.10;99.90;;;;;;5020458;28;20164;-48
2023/01/06 00:40:40;;;;;;;24.20;15.70;;;10.10;99.90;;;;;;5021104;28;20864;-48
2023/01/06 00:43:06;;;;;;;22.23;13.68;;;10.10;99.90;;;;;;5004848;28;20034;-48
2023/01/06 00:45:32;;;;;;;23.65;14.40;;;10.10;99.90;;;;;;5023666;28;20038;-48
2023/01/06 00:47:58;;;;;;;20.25;13.63;;;10.10;99.90;;;;;;5021061;28;20083;-48
2023/01/06 00:50:23;;;;;;;20.40;13.18;;;10.10;99.90;;;;;;5020280;28;20077;-48
2023/01/06 00:52:49;;;;;;;24.15;13.05;;;10.10;99.90;;;;;;5018068;28;20380;-48
2023/01/06 00:55:15;;;;;;;19.10;12.27;;;10.10;99.90;;;;;;5019031;28;20161;-48
2023/01/06 00:57:41;;;;;;;17.08;11.65;;;10.10;99.90;;;;;;5027767;28;20576;-49
2023/01/06 01:00:08;;;;;;;18.73;11.50;;;10.10;99.90;;;;;;5027326;28;20438;-51
2023/01/06 01:02:34;;;;;;;16.05;11.30;;;10.10;99.90;;;;;;5023632;28;20073;-50
2023/01/06 01:05:00;;;;;;;19.80;11.02;;;10.10;99.90;;;;;;5023088;28;20053;-48
2023/01/06 01:07:25;;;;;;;17.25;11.32;;;10.10;99.90;;;;;;5020887;28;20038;-48
2023/01/06 01:09:51;;;;;;;19.55;11.77;;;10.10;99.90;;;;;;5003393;28;20041;-48
2023/01/06 01:12:17;;;;;;;16.42;11.10;;;10.10;99.90;;;;;;5021372;28;20124;-48
2023/01/06 01:14:51;;;;;;;17.48;11.45;;;10.10;99.90;;;;;;5022179;28;20050;-52
2023/01/06 01:17:21;;;;;;;15.00;10.85;;;10.10;99.90;;;;;;5025788;28;20045;-49
2023/01/06 01:19:48;;;;;;;14.90;10.18;;;10.10;99.90;;;;;;5024128;28;20096;-50
2023/01/06 01:22:15;;;;;;;14.17;10.27;;;10.00;99.90;;;;;;5012944;28;20094;-48
2023/01/06 01:24:41;;;;;;;16.63;10.80;;;10.00;99.90;;;;;;5025276;28;20095;-48
2023/01/06 01:27:06;;;;;;;15.98;10.40;;;10.00;99.90;;;;;;5024365;28;20045;-48
2023/01/06 01:29:32;;;;;;;16.20;10.48;;;10.00;99.90;;;;;;5009497;28;20038;-51
2023/01/06 01:31:58;;;;;;;19.65;10.05;;;10.00;99.90;;;;;;5028475;28;20037;-50
2023/01/06 01:34:24;;;;;;;14.73;9.68;;;10.00;99.90;;;;;;5025067;28;20068;-51
2023/01/06 01:36:52;;;;;;;12.52;9.70;;;10.00;99.90;;;;;;5025718;28;20042;-48
2023/01/06 01:39:23;;;;;;;15.68;9.35;;;10.00;99.90;;;;;;5025902;28;20095;-49
2023/01/06 01:41:49;;;;;;;15.35;10.07;;;10.00;99.90;;;;;;5024971;28;20136;-50
2023/01/06 01:44:46;;;;;;;19.45;9.80;;;10.00;99.90;;;;;;5028392;28;20048;-48
2023/01/06 01:47:15;;;;;;;15.32;9.02;;;10.00;99.90;;;;;;5022082;28;20457;-50
2023/01/06 01:49:44;;;;;;;14.45;8.98;;;10.00;99.90;;;;;;5005809;28;20044;-49
2023/01/06 01:52:12;;;;;;;17.30;9.10;;;10.00;99.90;;;;;;5019221;28;20100;-49
2023/01/06 01:54:39;;;;;;;12.15;9.00;;;10.00;99.90;;;;;;5020596;28;20049;-49
2023/01/06 01:57:12;;;;;;;12.85;8.65;;;9.90;99.90;;;;;;5020198;28;20055;-49
2023/01/06 01:59:40;;;;;;;12.45;8.40;;;10.00;99.90;;;;;;5006362;28;20072;-48
2023/01/06 02:02:07;;;;;;;11.85;8.20;;;9.90;99.90;;;;;;5021684;28;20132;-48
2023/01/06 02:04:39;;;;;;;16.88;8.65;;;10.00;99.90;;;;;;5019108;28;20073;-48
2023/01/06 02:07:05;;;;;;;14.02;7.57;;;10.00;99.90;;;;;;5019554;28;21686;-48
2023/01/06 02:10:02;;;;;;;13.27;7.75;;;9.90;99.90;;;;;;5018777;28;20117;-48
2023/01/06 02:12:29;;;;;;;11.20;7.75;;;10.00;99.90;;;;;;5008869;28;20411;-50
2023/01/06 02:14:54;;;;;;;12.55;7.72;;;10.00;99.90;;;;;;5020889;28;20037;-48
2023/01/06 02:17:57;;;;;;;12.43;7.32;;;10.00;99.90;;;;;;5028554;28;20063;-49
2023/01/06 02:20:53;;;;;;;12.27;8.05;;;10.00;99.90;;;;;;5026210;28;20136;-49
2023/01/06 02:23:39;;;;;;;12.10;8.15;;;10.00;99.90;;;;;;5028704;28;20503;-51
2023/01/06 02:26:30;;;;;;;10.38;7.32;;;10.00;99.90;;;;;;5027280;28;20045;-47
2023/01/06 02:29:17;;;;;;;10.60;7.82;;;10.00;99.90;;;;;;5029038;28;20100;-48
2023/01/06 02:32:06;;;;;;;12.90;7.93;;;10.00;99.90;;;;;;5024536;28;20037;-49
2023/01/06 02:34:59;;;;;;;10.95;7.55;;;10.00;99.90;;;;;;5022962;28;20048;-47
2023/01/06 02:38:09;;;;;;;10.63;7.40;;;10.00;99.90;;;;;;5025317;28;20189;-48
2023/01/06 02:40:52;;;;;;;10.10;7.22;;;10.00;99.90;;;;;;4979845;28;20489;-48
2023/01/06 02:43:42;;;;;;;9.60;8.40;;;10.00;99.90;;;;;;4980710;28;20054;-50
2023/01/06 02:46:23;;;;;;;11.88;9.38;;;10.00;99.90;;;;;;4981056;28;20042;-49
2023/01/06 02:49:06;;;;;;;14.20;10.77;;;10.00;99.90;;;;;;4980359;28;20054;-49
2023/01/06 02:51:55;;;;;;;17.58;13.57;;;10.00;99.90;;;;;;4977400;28;20038;-48
2023/01/06 02:54:59;;;;;;;15.45;13.50;;;10.00;99.90;;;;;;4975194;28;20053;-49
2023/01/06 02:57:51;;;;;;;20.80;14.90;;;10.00;99.90;;;;;;4979306;28;20057;-48
2023/01/06 03:00:23;;;;;;;18.35;16.55;;;10.00;99.90;;;;;;4976677;28;20180;-51
2023/01/06 03:02:55;;;;;;;16.73;15.07;;;10.00;99.90;;;;;;4980841;28;20625;-50
2023/01/06 03:05:23;;;;;;;18.65;16.40;;;10.00;99.90;;;;;;4977249;28;22091;-48
2023/01/06 03:07:49;;;;;;;18.45;16.45;;;10.00;99.90;;;;;;4949513;28;20177;-48
2023/01/06 03:10:18;;;;;;;20.42;17.60;;;9.90;99.90;;;;;;4977587;28;20076;-48
2023/01/06 03:12:54;;;;;;;20.05;17.08;;;10.00;99.90;;;;;;4983661;28;20392;-48
2023/01/06 03:15:20;;;;;;;19.48;17.48;;;10.00;99.90;;;;;;5011407;28;20136;-48
2023/01/06 03:17:46;;;;;;;19.80;16.77;;;10.00;99.90;;;;;;5018030;28;20126;-48
2023/01/06 03:20:13;;;;;;;20.58;16.85;;;9.90;99.90;;;;;;5018019;28;20041;-50
2023/01/06 03:22:39;;;;;;;18.65;16.73;;;9.90;99.90;;;;;;5017355;28;20563;-48
2023/01/06 03:25:07;;;;;;;19.88;16.20;;;9.90;99.90;;;;;;5024132;28;20549;-50
2023/01/06 03:27:33;;;;;;;19.10;16.43;;;10.00;99.90;;;;;;5020877;28;20492;-48
2023/01/06 03:29:59;;;;;;;16.35;14.60;;;10.00;99.90;;;;;;5021881;28;20037;-48
2023/01/06 03:32:35;;;;;;;15.98;14.27;;;9.90;99.90;;;;;;5024777;28;20103;-52
2023/01/06 03:35:20;;;;;;;16.30;14.70;;;10.00;99.90;;;;;;5020890;28;20041;-48
2023/01/06 03:38:00;;;;;;;16.52;14.75;;;9.90;99.90;;;;;;5012459;28;20045;-49
2023/01/06 03:40:38;;;;;;;18.35;14.48;;;9.90;99.90;;;;;;5024779;28;20046;-49
2023/01/06 03:43:39;;;;;;;15.90;14.25;;;9.90;99.90;;;;;;5029636;28;20041;-49
2023/01/06 03:46:08;;;;;;;15.38;13.05;;;9.90;99.90;;;;;;5003406;28;20061;-51
2023/01/06 03:49:07;;;;;;;14.00;12.38;;;9.90;99.90;;;;;;5023320;28;20488;-48
2023/01/06 03:51:57;;;;;;;13.48;12.10;;;9.90;99.90;;;;;;5020502;28;20480;-48
2023/01/06 03:54:29;;;;;;;13.52;12.13;;;9.90;99.90;;;;;;5025734;28;20053;-49
2023/01/06 03:57:04;;;;;;;12.85;11.00;;;9.90;99.90;;;;;;5023738;28;20034;-48
2023/01/06 03:59:40;;;;;;;12.55;10.88;;;9.90;99.90;;;;;;5028046;28;20037;-49
2023/01/06 04:02:06;;;;;;;12.05;10.77;;;9.90;99.90;;;;;;5022055;28;20045;-51
2023/01/06 04:04:31;;;;;;;12.07;10.35;;;9.90;99.90;;;;;;5024309;28;21186;-49
2023/01/06 04:06:57;;;;;;;12.52;9.60;;;9.90;99.90;;;;;;5021745;28;20038;-51
2023/01/06 04:09:23;;;;;;;12.35;10.00;;;10.00;99.90;;;;;;5007627;28;20076;-49
2023/01/06 04:14:32;;;;;;;10.57;9.20;;;10.00;99.90;;;;;;5024874;28;20045;-48
2023/01/06 04:16:58;;;;;;;11.02;8.85;;;10.00;99.90;;;;;;5022153;28;20048;-49
2023/01/06 04:19:24;;;;;;;9.98;8.60;;;10.00;99.90;;;;;;5025873;28;20543;-51
2023/01/06 04:21:49;;;;;;;12.10;8.90;;;9.90;99.90;;;;;;5022096;28;20376;-49
2023/01/06 04:24:15;;;;;;;8.93;8.05;;;9.90;99.90;;;;;;5021291;28;20037;-48
2023/01/06 04:26:40;;;;;;;10.57;7.97;;;9.90;99.90;;;;;;5020571;28;20037;-49
2023/01/06 04:29:06;;;;;;;11.80;7.35;;;9.90;99.90;;;;;;5027485;28;20040;-47
2023/01/06 04:31:31;;;;;;;9.07;7.13;;;9.90;99.90;;;;;;5023072;28;20046;-47
2023/01/06 04:33:57;;;;;;;7.97;7.18;;;9.90;99.90;;;;;;5021943;28;20056;-50
2023/01/06 04:36:23;;;;;;;7.50;6.60;;;9.90;99.90;;;;;;5021262;28;21697;-47
2023/01/06 04:38:48;;;;;;;8.05;6.07;;;9.90;99.90;;;;;;5030229;28;20492;-48
2023/01/06 04:41:14;;;;;;;6.63;5.88;;;9.90;99.90;;;;;;5017756;28;20041;-49
2023/01/06 04:43:39;;;;;;;6.95;6.25;;;10.00;99.90;;;;;;5024698;28;20488;-51
2023/01/06 04:46:05;;;;;;;6.88;5.80;;;10.00;99.90;;;;;;5024479;28;20037;-52
2023/01/06 04:48:31;;;;;;;9.35;6.03;;;10.00;99.90;;;;;;5022062;28;20447;-49
2023/01/06 04:51:05;;;;;;;7.75;5.63;;;10.00;99.90;;;;;;5007280;28;20498;-48
2023/01/06 04:53:39;;;;;;;6.60;5.60;;;10.00;99.90;;;;;;5023029;28;20076;-49
2023/01/06 04:56:08;;;;;;;7.63;5.57;;;10.00;99.90;;;;;;5024655;28;20048;-49
2023/01/06 04:58:34;;;;;;;9.18;5.78;;;10.00;99.90;;;;;;5020215;28;20080;-48
2023/01/06 05:01:06;;;;;;;6.88;6.07;;;10.00;99.90;;;;;;5022844;28;20061;-50
2023/01/06 05:03:31;;;;;;;6.70;6.00;;;10.00;99.90;;;;;;5020361;28;20073;-52
2023/01/06 05:06:02;;;;;;;6.55;5.85;;;10.00;99.90;;;;;;5021929;28;20072;-49
2023/01/06 05:08:29;;;;;;;8.07;6.28;;;10.00;99.90;;;;;;5017898;28;20092;-49
2023/01/06 05:11:02;;;;;;;6.88;5.55;;;9.90;99.90;;;;;;5020909;28;20037;-48
2023/01/06 05:13:30;;;;;;;6.65;5.53;;;10.00;99.90;;;;;;5024126;28;20224;-48
2023/01/06 05:15:55;;;;;;;6.47;5.30;;;10.00;99.90;;;;;;5019146;28;20049;-48
2023/01/06 05:18:21;;;;;;;6.32;5.10;;;10.00;99.90;;;;;;5023061;28;20059;-48
2023/01/06 05:20:53;;;;;;;5.60;5.10;;;10.00;99.90;;;;;;5019307;28;20520;-50
2023/01/06 05:23:20;;;;;;;7.32;5.38;;;10.00;99.90;;;;;;5020086;28;20052;-51
2023/01/06 05:25:46;;;;;;;5.68;4.88;;;10.00;99.90;;;;;;5021526;28;20078;-48
2023/01/06 05:28:12;;;;;;;5.55;5.00;;;10.00;99.90;;;;;;5021171;28;20597;-48
2023/01/06 05:30:38;;;;;;;6.65;4.72;;;10.00;99.90;;;;;;5011580;28;20042;-51
2023/01/06 05:33:04;;;;;;;5.97;4.40;;;10.00;99.90;;;;;;5024227;28;20449;-48
2023/01/06 05:35:29;;;;;;;6.93;4.65;;;10.00;99.90;;;;;;5008833;28;20061;-48
2023/01/06 05:37:55;;;;;;;7.80;4.97;;;10.00;99.90;;;;;;5025902;28;20099;-49
2023/01/06 05:40:21;;;;;;;8.35;4.70;;;10.00;99.90;;;;;;5022666;28;20034;-48
2023/01/06 05:42:47;;;;;;;5.57;3.60;;;10.00;99.90;;;;;;5024880;28;20063;-51
2023/01/06 05:45:12;;;;;;;4.40;4.00;;;10.00;99.90;;;;;;5023891;28;20788;-47
2023/01/06 05:47:38;;;;;;;7.30;3.92;;;10.00;99.90;;;;;;5024850;28;20038;-49
2023/01/06 05:50:04;;;;;;;7.05;4.35;;;10.00;99.90;;;;;;5023177;28;20496;-49
2023/01/06 05:52:30;;;;;;;8.20;3.92;;;10.00;99.90;;;;;;5025288;28;20042;-48
2023/01/06 05:54:56;;;;;;;7.32;3.97;;;10.00;99.90;;;;;;5025315;28;20452;-50
2023/01/06 05:57:21;;;;;;;5.20;3.60;;;10.00;99.90;;;;;;5025721;28;20093;-51
2023/01/06 05:59:47;;;;;;;5.93;3.47;;;10.00;99.90;;;;;;5028652;28;20060;-51
2023/01/06 06:02:12;;;;;;;5.88;3.10;;;10.00;99.90;;;;;;5025164;28;20038;-53
2023/01/06 06:04:38;;;;;;;5.15;2.90;;;10.00;99.90;;;;;;5025527;28;20461;-52
2023/01/06 06:07:04;;;;;;;5.68;3.20;;;10.00;99.90;;;;;;5023535;28;20099;-50
2023/01/06 06:09:29;;;;;;;4.20;2.65;;;10.00;99.90;;;;;;5029725;28;20156;-51
2023/01/06 06:11:55;;;;;;;4.45;2.80;;;10.00;99.90;;;;;;5021387;28;20045;-50
2023/01/06 06:14:20;;;;;;;5.97;2.83;;;10.00;99.90;;;;;;5003276;28;20037;-51
2023/01/06 06:16:46;;;;;;;3.88;2.85;;;10.00;99.90;;;;;;5020678;28;20506;-52
2023/01/06 06:19:12;;;;;;;4.55;2.67;;;10.00;99.90;;;;;;5003729;28;20131;-50
2023/01/06 06:21:38;;;;;;;6.75;3.10;;;10.00;99.90;;;;;;5018735;28;20045;-49
2023/01/06 06:24:04;;;;;;;5.00;2.60;;;10.00;99.90;;;;;;5023190;28;20068;-50
2023/01/06 06:26:29;;;;;;;7.05;3.13;;;10.00;99.90;;;;;;5018932;28;20091;-50
2023/01/06 06:28:55;;;;;;;6.47;3.10;;;10.00;99.90;;;;;;5021051;28;20041;-52
2023/01/06 06:31:24;;;;;;;4.07;2.92;;;10.00;99.90;;;;;;5022903;28;20107;-49
2023/01/06 06:33:55;;;;;;;6.55;3.20;;;10.00;99.90;;;;;;5017905;28;20125;-50
2023/01/06 06:36:21;;;;;;;3.28;2.92;;;10.10;99.90;;;;;;5018842;28;20076;-51
2023/01/06 06:38:49;;;;;;;6.20;3.05;;;10.00;99.90;;;;;;5019849;28;20136;-51
2023/01/06 06:41:14;;;;;;;4.22;2.80;;;10.00;99.90;;;;;;5018286;28;20080;-49
2023/01/06 06:43:40;;;;;;;4.43;3.00;;;10.00;99.90;;;;;;5016974;28;20092;-54
2023/01/06 06:46:07;;;;;;;6.60;3.00;;;10.00;99.90;;;;;;5021753;28;20069;-49
2023/01/06 06:48:33;;;;;;;6.03;3.80;;;10.00;99.90;;;;;;5018440;28;20492;-51
2023/01/06 06:51:00;;;;;;;3.70;3.30;;;10.00;99.90;;;;;;5012940;28;20052;-52
2023/01/06 06:53:26;;;;;;;7.35;3.70;;;9.90;99.90;;;;;;5004900;28;20072;-51
2023/01/06 06:55:53;;;;;;;7.75;3.67;;;9.90;99.90;;;;;;5020275;28;20782;-52
2023/01/06 06:58:19;;;;;;;7.50;3.72;;;9.90;99.90;;;;;;5018341;28;20434;-53
2023/01/06 07:00:45;;;;;;;7.22;3.63;;;9.80;99.90;;;;;;5018702;28;20053;-49
2023/01/06 07:03:10;;;;;;;5.78;3.90;;;9.80;99.90;;;;;;5021641;28;20063;-49
2023/01/06 07:05:36;;;;;;;4.97;3.70;;;9.80;99.90;;;;;;5018291;28;20037;-51
2023/01/06 07:08:01;;;;;;;5.68;4.10;;;9.70;99.90;;;;;;4998708;28;20551;-49
2023/01/06 07:10:30;;;;;;;6.70;4.38;;;9.70;99.90;;;;;;5019694;28;20532;-49
2023/01/06 07:12:55;;;;;;;10.30;4.13;;;9.70;99.90;;;;;;5020048;28;20055;-49
2023/01/06 07:15:21;;;;;;;5.40;4.05;;;9.70;99.90;;;;;;5019043;28;20496;-49
2023/01/06 07:17:46;;;;;;;8.63;4.00;;;9.70;99.90;;;;;;5017808;28;20052;-51
2023/01/06 07:20:12;;;;;;;7.90;4.40;;;9.70;99.90;;;;;;5019336;28;20635;-50
2023/01/06 07:22:39;;;;;;;7.75;5.07;;;9.70;99.90;;;;;;4997554;28;20045;-50
2023/01/06 07:25:06;;;;;;;7.63;4.97;;;9.70;99.90;;;;;;5017185;28;20669;-51
2023/01/06 07:27:32;;;;;;;6.32;4.60;;;9.70;99.90;;;;;;5020852;28;20387;-49
2023/01/06 07:29:57;;;;;;;8.57;5.10;;;9.70;99.90;;;;;;5023702;28;20048;-53
2023/01/06 07:32:23;;;;;;;7.95;5.72;;;9.70;99.90;;;;;;5024796;28;20037;-53
2023/01/06 07:34:49;;;;;;;8.32;5.43;;;9.70;99.90;;;;;;5022286;28;20136;-54
2023/01/06 07:37:14;;;;;;;6.05;5.45;;;9.70;99.90;;;;;;4992637;28;20050;-53
2023/01/06 07:39:40;;;;;;;7.78;5.72;;;9.60;99.90;;;;;;5021969;28;20053;-51
2023/01/06 07:42:09;;;;;;;6.50;5.65;;;9.60;99.90;;;;;;5003570;28;20034;-50
2023/01/06 07:44:35;;;;;;;8.05;5.53;;;9.60;99.90;;;;;;5023987;28;20191;-51
2023/01/06 07:47:01;;;;;;;6.50;5.90;;;9.70;99.90;;;;;;5005943;28;20404;-50
2023/01/06 07:49:27;;;;;;;6.72;5.90;;;9.70;99.90;;;;;;5026378;28;20060;-50
2023/01/06 07:51:52;;;;;;;8.30;6.60;;;9.60;99.90;;;;;;5023804;28;20072;-52
2023/01/06 07:54:18;;;;;;;7.57;5.95;;;9.60;99.90;;;;;;5025062;28;20059;-50
2023/01/06 07:56:44;;;;;;;7.90;6.40;;;9.70;99.90;;;;;;5022770;28;20041;-50
2023/01/06 07:59:09;;;;;;;7.57;6.45;;;9.70;99.90;;;;;;5018981;28;20160;-51
2023/01/06 08:01:35;;;;;;;7.68;6.97;;;9.70;99.90;;;;;;5021209;28;20053;-53
2023/01/06 08:04:01;;;;;;;8.77;7.10;;;9.70;99.90;;;;;;5003119;28;20041;-51
2023/01/06 08:06:27;;;;;;;8.07;6.65;;;9.70;99.90;;;;;;5027625;28;20403;-49
2023/01/06 08:08:52;;;;;;;8.75;7.95;;;9.70;99.90;;;;;;5026296;28;20045;-51
2023/01/06 08:11:18;;;;;;;8.52;7.72;;;9.70;99.90;;;;;;5020003;28;20041;-50
2023/01/06 08:13:44;;;;;;;7.43;6.82;;;9.80;99.90;;;;;;5020182;28;20110;-52
2023/01/06 08:16:10;;;;;;;8.95;8.05;;;9.70;99.90;;;;;;5019260;28;20045;-51
2023/01/06 08:18:36;;;;;;;9.75;8.73;;;9.80;99.90;;;;;;5017542;28;20049;-50
2023/01/06 08:21:08;;;;;;;10.40;9.10;;;9.80;99.90;;;;;;5003436;28;20042;-54
2023/01/06 08:23:35;;;;;;;9.65;8.70;;;9.80;99.90;;;;;;5017407;28;20111;-52
2023/01/06 08:26:21;;;;;;;13.48;8.57;;;9.80;99.90;;;;;;5005876;28;20149;-51
2023/01/06 08:28:47;;;;;;;10.40;8.70;;;9.80;99.90;;;;;;5027736;28;20054;-49
2023/01/06 08:31:18;;;;;;;10.50;9.63;;;9.90;99.90;;;;;;5010560;28;20049;-52
2023/01/06 08:33:44;;;;;;;10.30;8.85;;;9.80;99.90;;;;;;5021334;28;20052;-50
2023/01/06 08:36:14;;;;;;;10.85;9.75;;;9.90;99.90;;;;;;5026478;28;20030;-49
2023/01/06 08:38:40;;;;;;;10.20;8.55;;;9.90;99.90;;;;;;5024651;28;20117;-51
2023/01/06 08:41:06;;;;;;;8.70;7.95;;;9.80;99.90;;;;;;5026157;28;20444;-49
2023/01/06 08:43:32;;;;;;;8.75;7.40;;;9.80;99.90;;;;;;5022500;28;20053;-54
2023/01/06 08:46:00;;;;;;;9.20;7.32;;;9.80;99.90;;;;;;5026877;28;20041;-50
2023/01/06 08:48:26;;;;;;;8.13;7.28;;;9.70;99.90;;;;;;5020191;28;20412;-50
2023/01/06 08:50:52;;;;;;;6.18;5.32;;;9.60;99.90;;;;;;5023580;28;20041;-49
2023/01/06 08:53:18;;;;;;;5.70;5.10;;;9.50;99.90;;;;;;5020787;28;20052;-54
2023/01/06 08:55:43;;;;;;;5.60;4.50;;;9.50;99.90;;;;;;5026537;28;20041;-51
2023/01/06 08:58:09;;;;;;;7.70;3.53;;;9.40;99.90;;;;;;5025703;28;20046;-54
2023/01/06 09:00:38;;;;;;;5.97;3.22;;;9.30;99.90;;;;;;5027623;28;20098;-51
2023/01/06 09:03:04;;;;;;;6.65;2.60;;;9.20;99.90;;;;;;5022813;28;20037;-51
2023/01/06 09:05:29;;;;;;;5.47;2.42;;;9.20;99.90;;;;;;5022066;28;20044;-51
2023/01/06 09:07:55;;;;;;;7.53;2.67;;;9.20;99.90;;;;;;5023649;28;20117;-50
2023/01/06 09:10:21;;;;;;;7.35;2.75;;;9.10;99.90;;;;;;5018553;28;20069;-50
2023/01/06 09:12:47;;;;;;;8.13;2.85;;;9.10;99.90;;;;;;5023633;28;20038;-51
2023/01/06 09:15:13;;;;;;;8.18;2.75;;;9.10;99.90;;;;;;5025304;28;20460;-49
2023/01/06 09:17:39;;;;;;;10.88;3.20;;;9.10;99.90;;;;;;5020963;28;20045;-53
2023/01/06 09:20:05;;;;;;;9.40;3.40;;;9.10;99.90;;;;;;5022532;28;20030;-50
2023/01/06 09:22:30;;;;;;;11.00;3.47;;;9.10;99.90;;;;;;5025283;28;20044;-50
2023/01/06 09:24:56;;;;;;;8.00;2.65;;;9.10;99.90;;;;;;5023226;28;20037;-49
2023/01/06 09:27:22;;;;;;;8.48;2.60;;;9.10;99.90;;;;;;5022203;28;20038;-50
2023/01/06 09:29:48;;;;;;;6.63;2.22;;;9.10;99.90;;;;;;5024288;28;20081;-52
2023/01/06 09:32:13;;;;;;;10.07;2.30;;;9.10;99.90;;;;;;5026315;28;20530;-51
2023/01/06 09:34:39;;;;;;;8.73;2.40;;;9.10;99.90;;;;;;5026504;28;20049;-50
2023/01/06 09:37:05;;;;;;;9.18;2.30;;;9.10;99.90;;;;;;5023884;28;20392;-50
2023/01/06 09:39:30;;;;;;;6.80;2.25;;;9.10;99.90;;;;;;5022160;28;20420;-50
2023/01/06 09:41:59;;;;;;;7.28;1.90;;;9.10;99.90;;;;;;5025752;28;20473;-50
2023/01/06 09:44:30;;;;;;;8.38;1.88;;;9.10;99.90;;;;;;5022518;28;20046;-50
2023/01/06 09:46:57;;;;;;;9.52;2.03;;;9.00;99.90;;;;;;5023077;28;20125;-52
2023/01/06 09:49:26;;;;;;;10.00;1.88;;;9.00;99.90;;;;;;5023460;28;20064;-51
2023/01/06 09:51:56;;;;;;;9.75;1.90;;;9.00;99.90;;;;;;5025932;28;20116;-49
2023/01/06 09:54:26;;;;;;;6.68;1.77;;;9.00;99.90;;;;;;5028833;28;20046;-50
2023/01/06 09:57:03;;;;;;;7.72;2.00;;;9.00;99.90;;;;;;5011648;28;20445;-52
2023/01/06 09:59:51;;;;;;;9.10;1.90;;;9.00;99.90;;;;;;5025434;28;20503;-49
2023/01/06 10:02:35;;;;;;;8.23;1.80;;;9.00;99.90;;;;;;5015609;28;20056;-51
2023/01/06 10:05:02;;;;;;;8.95;1.70;;;9.00;99.90;;;;;;5028143;28;20044;-49
2023/01/06 10:07:40;;;;;;;8.15;1.58;;;9.00;99.90;;;;;;5020304;28;20087;-52
2023/01/06 10:10:22;;;;;;;10.32;1.70;;;9.00;99.90;;;;;;5011961;28;20488;-50
2023/01/06 10:13:16;;;;;;;8.77;1.50;;;9.00;99.90;;;;;;5030487;28;20084;-50
2023/01/06 10:16:17;;;;;;;11.60;1.85;;;9.00;99.90;;;;;;5014095;28;20512;-49
2023/01/06 10:18:57;;;;;;;10.10;1.98;;;9.10;99.90;;;;;;5023968;28;20041;-51
2023/01/06 10:21:44;;;;;;;7.97;1.88;;;9.10;99.90;;;;;;5032663;28;20057;-49
2023/01/06 10:24:27;;;;;;;10.57;2.23;;;9.10;99.90;;;;;;5032540;28;20045;-49
2023/01/06 10:27:00;;;;;;;11.27;3.05;;;9.10;99.90;;;;;;5020510;28;20766;-49
2023/01/06 10:29:32;;;;;;;9.82;2.00;;;9.10;99.90;;;;;;5018021;28;20046;-47
2023/01/06 10:32:01;;;;;;;10.10;1.60;;;9.20;99.90;;;;;;5014069;28;20128;-48
2023/01/06 10:34:27;;;;;;;8.65;1.92;;;9.20;99.90;;;;;;5022224;28;20484;-47
2023/01/06 10:37:16;;;;;;;11.02;2.00;;;9.30;99.90;;;;;;5026102;28;20527;-47
2023/01/06 10:39:45;;;;;;;9.60;2.00;;;9.40;99.90;;;;;;5030728;28;20096;-47
2023/01/06 10:45:13;;;;;;;11.25;2.13;;;9.70;99.90;;;;;;5030072;28;20464;-47
2023/01/06 10:47:41;;;;;;;10.82;2.00;;;9.90;99.90;;;;;;5032332;28;20426;-47
2023/01/06 10:50:11;;;;;;;;;;;10.00;99.90;;;;;;5033097;28;20041;-47
2023/01/06 10:52:37;;;;;;;12.68;2.30;;;10.10;99.90;;;;;;5022484;28;19999;-47
2023/01/06 10:55:05;;;;;;;12.48;2.55;;;10.30;99.90;;;;;;5030207;28;20049;-47
2023/01/06 10:57:40;;;;;;;6.82;2.05;;;10.30;99.90;;;;;;5007714;28;20120;-47
2023/01/06 11:00:12;;;;;;;14.35;2.38;;;10.30;99.90;;;;;;5027958;28;20128;-48
2023/01/06 11:03:02;;;;;;;11.55;1.80;;;10.30;99.90;;;;;;5030804;28;20033;-49
2023/01/06 11:05:30;;;;;;;10.88;2.05;;;10.20;99.90;;;;;;5029324;28;20045;-47
2023/01/06 11:07:57;;;;;;;;;;;10.10;99.90;;;;;;5030982;28;20038;-48
2023/01/06 11:10:23;;;;;;;;;;;10.00;99.90;;;;;;5013230;28;20023;-47
2023/01/06 11:12:50;;;;;;;11.93;1.63;;;10.00;99.90;;;;;;5029903;28;20012;-47
2023/01/06 11:15:21;;;;;;;11.70;1.85;;;9.90;99.90;;;;;;5010025;28;20072;-48
2023/01/06 11:17:47;;;;;;;7.80;1.60;;;9.90;99.90;;;;;;5027659;28;20129;-48
2023/01/06 11:20:13;;;;;;;9.75;1.92;;;9.90;99.90;;;;;;5030027;28;20152;-47
2023/01/06 11:22:40;;;;;;;11.52;2.08;;;9.90;99.90;;;;;;5028020;28;20061;-49
2023/01/06 11:25:18;;;;;;;9.63;1.73;;;9.90;99.90;;;;;;5024827;28;20034;-47
2023/01/06 11:27:44;;;;;;;9.40;1.67;;;9.90;99.90;;;;;;5031664;28;20041;-47
2023/01/06 11:30:24;;;;;;;9.50;2.10;;;10.00;99.90;;;;;;5009834;28;20389;-46
2023/01/06 11:32:50;;;;;;;8.85;1.90;;;9.90;99.90;;;;;;5014246;28;20041;-47
2023/01/06 11:35:20;;;;;;;9.27;1.23;;;10.00;99.90;;;;;;5025397;28;20044;-48
2023/01/06 11:37:45;;;;;;;10.43;1.50;;;10.00;99.90;;;;;;5026225;28;20033;-47
2023/01/06 11:40:28;;;;;;;10.48;1.80;;;10.00;99.90;;;;;;5031597;28;20502;-47
2023/01/06 11:42:57;;;;;;;11.73;2.15;;;9.90;99.90;;;;;;5012189;28;20404;-46
2023/01/06 11:45:35;;;;;;;9.52;1.80;;;9.90;99.90;;;;;;5029232;28;20129;-47
2023/01/06 11:48:17;;;;;;;5.50;1.13;;;9.90;99.90;;;;;;5012364;28;20126;-47
2023/01/06 11:50:51;;;;;;;10.60;1.65;;;9.90;99.90;;;;;;5032200;28;20042;-47
2023/01/06 11:53:18;;;;;;;10.75;1.38;;;9.90;99.90;;;;;;5026039;28;20113;-46
2023/01/06 11:56:03;;;;;;;11.35;1.90;;;10.00;99.90;;;;;;5029553;28;20523;-47
2023/01/06 11:58:41;;;;;;;7.78;1.40;;;10.10;99.90;;;;;;5024115;28;20064;-47
2023/01/06 12:01:13;;;;;;;7.65;1.40;;;10.00;99.90;;;;;;5025644;28;20045;-47
2023/01/06 12:03:49;;;;;;;6.47;1.45;;;10.00;99.90;;;;;;5017828;28;20123;-50
2023/01/06 12:06:19;;;;;;;7.85;1.33;;;10.10;99.90;;;;;;5030687;28;20507;-46
2023/01/06 12:09:14;;;;;;;7.72;1.30;;;10.00;99.90;;;;;;5034426;28;20042;-47
2023/01/06 12:11:51;;;;;;;6.80;1.30;;;10.10;99.90;;;;;;5027847;28;20049;-47
2023/01/06 12:14:23;;;;;;;7.28;2.05;;;10.00;99.90;;;;;;5030852;28;20095;-46
2023/01/06 12:17:11;;;;;;;6.45;1.20;;;10.00;99.90;;;;;;5015704;28;20095;-47
2023/01/06 12:19:55;;;;;;;7.53;2.05;;;10.00;99.90;;;;;;5034660;28;20095;-47
2023/01/06 12:22:35;;;;;;;8.63;1.83;;;10.00;99.90;;;;;;5034655;28;20120;-47
2023/01/06 12:25:02;;;;;;;7.57;1.50;;;9.90;99.90;;;;;;5029249;28;20045;-47
2023/01/06 12:27:42;;;;;;;4.68;1.00;;;9.90;99.90;;;;;;5031606;28;20479;-48
2023/01/06 12:30:17;;;;;;;8.68;1.42;;;9.80;99.90;;;;;;5033761;28;20037;-47
2023/01/06 12:32:47;;;;;;;8.60;1.48;;;9.90;99.90;;;;;;5016255;28;20513;-48
2023/01/06 12:35:19;;;;;;;7.20;1.33;;;10.00;99.90;;;;;;5034129;28;20045;-47
2023/01/06 12:37:49;;;;;;;6.60;1.90;;;10.00;99.90;;;;;;5036106;28;20048;-49
2023/01/06 12:40:41;;;;;;;6.38;1.40;;;10.10;99.90;;;;;;5017987;28;20049;-48
2023/01/06 12:43:17;;;;;;;8.93;1.55;;;10.10;99.90;;;;;;5035814;28;20068;-49
2023/01/06 12:46:05;;;;;;;8.23;1.58;;;10.20;99.90;;;;;;5029490;28;20450;-48
2023/01/06 12:48:50;;;;;;;10.27;1.75;;;10.20;99.90;;;;;;5035412;28;20072;-47
2023/01/06 12:51:36;;;;;;;10.20;1.52;;;10.20;99.90;;;;;;5019613;28;20049;-48
2023/01/06 12:54:28;;;;;;;5.40;1.50;;;10.30;99.90;;;;;;5032503;28;20078;-47
2023/01/06 12:57:17;;;;;;;5.35;1.35;;;10.30;99.90;;;;;;5035012;28;20445;-48
2023/01/06 13:00:01;;;;;;;11.30;1.75;;;10.30;99.90;;;;;;5032682;28;20095;-47
2023/01/06 13:02:29;;;;;;;8.63;1.67;;;10.30;99.90;;;;;;5029185;28;20052;-47
2023/01/06 13:04:55;;;;;;;8.35;1.73;;;10.30;99.90;;;;;;5034230;28;20053;-47
2023/01/06 13:07:29;;;;;;;4.60;1.10;;;10.20;99.90;;;;;;5034662;28;20046;-49
2023/01/06 13:10:25;;;;;;;8.77;1.50;;;10.10;99.90;;;;;;5034201;28;20087;-47